createdAt,value
2022-10-28T00:01:36.873Z,26.27
2022-10-28T00:04:05.288Z,23.52
2022-10-28T00:06:35.127Z,22.15
2022-10-28T00:09:08.159Z,22.50
2022-10-28T00:11:39.914Z,19.73
2022-10-28T00:14:08.689Z,22.45
2022-10-28T00:16:38.281Z,21.42
2022-10-28T00:19:07.630Z,18.20
2022-10-28T00:21:37.494Z,20.98
2022-10-28T00:24:07.902Z,20.80
2022-10-28T00:26:37.601Z,20.80
2022-10-28T00:29:06.705Z,21.17
2022-10-28T00:31:36.361Z,21.60
2022-10-28T00:34:05.828Z,22.60
2022-10-28T00:36:35.573Z,21.27
2022-10-28T00:39:04.700Z,21.20
2022-10-28T00:41:39.316Z,21.10
2022-10-28T00:44:22.310Z,21.77
2022-10-28T00:46:53.422Z,20.55
2022-10-28T00:49:23.578Z,22.52
2022-10-28T00:51:53.547Z,19.10
2022-10-28T00:54:22.401Z,19.55
2022-10-28T00:56:54.018Z,19.15
2022-10-28T00:59:24.322Z,19.25
2022-10-28T01:01:53.073Z,19.58
2022-10-28T01:04:22.211Z,18.20
2022-10-28T01:06:51.370Z,17.17
2022-10-28T01:09:19.603Z,21.88
2022-10-28T01:11:55.208Z,21.87
2022-10-28T01:14:28.322Z,19.52
2022-10-28T01:17:02.137Z,19.98
2022-10-28T01:19:50.312Z,21.67
2022-10-28T01:22:22.141Z,19.92
2022-10-28T01:25:05.188Z,16.70
2022-10-28T01:27:52.525Z,18.83
2022-10-28T01:30:21.635Z,16.83
2022-10-28T01:32:57.015Z,18.83
2022-10-28T01:35:28.601Z,19.35
2022-10-28T01:38:03.050Z,18.33
2022-10-28T01:40:34.636Z,21.80
2022-10-28T01:43:07.987Z,22.88
2022-10-28T01:45:38.961Z,21.13
2022-10-28T01:48:13.553Z,21.13
2022-10-28T01:50:45.098Z,17.80
2022-10-28T01:53:15.434Z,20.30
2022-10-28T01:55:44.488Z,20.30
2022-10-28T01:58:14.519Z,19.98
2022-10-28T02:00:44.650Z,21.15
2022-10-28T02:03:14.623Z,20.25
2022-10-28T02:05:44.077Z,19.23
2022-10-28T02:08:35.292Z,20.60
2022-10-28T02:11:12.581Z,20.65
2022-10-28T02:13:46.175Z,23.63
2022-10-28T02:16:17.157Z,22.30
2022-10-28T02:18:49.725Z,22.73
2022-10-28T02:21:21.155Z,22.65
2022-10-28T02:23:51.750Z,21.85
2022-10-28T02:26:23.356Z,18.83
2022-10-28T02:28:55.855Z,16.80
2022-10-28T02:35:08.904Z,17.35
2022-10-28T02:37:40.133Z,16.42
2022-10-28T02:40:11.025Z,17.75
2022-10-28T02:42:42.481Z,17.58
2022-10-28T02:45:16.091Z,16.33
2022-10-28T02:47:46.383Z,16.58
2022-10-28T02:50:17.229Z,15.23
2022-10-28T02:52:47.525Z,14.05
2022-10-28T02:55:15.883Z,15.95
2022-10-28T02:57:48.566Z,15.48
2022-10-28T03:00:17.676Z,16.13
2022-10-28T03:05:15.674Z,13.85
2022-10-28T03:07:44.184Z,14.57
2022-10-28T03:10:12.340Z,14.13
2022-10-28T03:12:40.829Z,13.83
2022-10-28T03:15:09.550Z,13.20
2022-10-28T03:17:37.944Z,13.00
2022-10-28T03:20:06.499Z,13.35
2022-10-28T03:22:36.635Z,12.82
2022-10-28T03:25:04.992Z,14.20
2022-10-28T03:27:33.358Z,13.52
2022-10-28T03:30:01.442Z,12.70
2022-10-28T03:32:29.995Z,12.10
2022-10-28T03:34:58.215Z,12.65
2022-10-28T03:37:26.624Z,13.23
2022-10-28T03:39:56.133Z,12.55
2022-10-28T03:42:24.535Z,12.43
2022-10-28T03:44:52.709Z,12.38
2022-10-28T03:47:21.224Z,13.27
2022-10-28T03:49:49.388Z,12.80
2022-10-28T03:52:17.870Z,12.63
2022-10-28T03:54:46.161Z,12.32
2022-10-28T03:57:15.956Z,12.88
2022-10-28T03:59:44.125Z,12.43
2022-10-28T04:02:12.941Z,13.20
2022-10-28T04:04:41.313Z,11.75
2022-10-28T04:07:09.736Z,11.88
2022-10-28T04:09:37.891Z,11.35
2022-10-28T04:12:07.472Z,11.60
2022-10-28T04:14:36.986Z,11.50
2022-10-28T04:17:05.357Z,11.63
2022-10-28T04:19:33.416Z,11.48
2022-10-28T04:22:01.693Z,12.13
2022-10-28T04:24:34.187Z,11.38
2022-10-28T04:27:02.774Z,11.20
2022-10-28T04:29:31.066Z,11.77
2022-10-28T04:32:01.505Z,12.80
2022-10-28T04:34:40.313Z,14.63
2022-10-28T04:39:41.713Z,16.40
2022-10-28T04:42:10.655Z,15.25
2022-10-28T04:44:39.614Z,15.88
2022-10-28T04:47:13.655Z,18.80
2022-10-28T04:49:42.248Z,23.15
2022-10-28T04:52:14.849Z,28.10
2022-10-28T04:54:44.527Z,25.38
2022-10-28T04:57:13.977Z,24.65
2022-10-28T04:59:42.359Z,25.20
2022-10-28T05:02:12.792Z,23.73
2022-10-28T05:04:41.834Z,24.08
2022-10-28T05:07:10.965Z,24.80
2022-10-28T05:09:39.894Z,24.30
2022-10-28T05:12:09.095Z,23.45
2022-10-28T05:14:37.605Z,26.10
2022-10-28T05:17:06.516Z,25.30
2022-10-28T05:19:37.047Z,26.02
2022-10-28T05:22:06.316Z,26.73
2022-10-28T05:24:35.000Z,26.83
2022-10-28T05:27:04.613Z,28.77
2022-10-28T05:29:33.524Z,25.80
2022-10-28T05:32:02.485Z,25.40
2022-10-28T05:34:31.483Z,26.70
2022-10-28T05:37:02.118Z,26.98
2022-10-28T05:39:33.368Z,27.90
2022-10-28T05:42:02.488Z,27.45
2022-10-28T05:44:30.971Z,29.17
2022-10-28T05:46:59.533Z,28.77
2022-10-28T05:49:28.577Z,29.13
2022-10-28T05:51:57.778Z,27.95
2022-10-28T05:54:27.946Z,28.23
2022-10-28T05:56:56.871Z,28.92
2022-10-28T05:59:25.828Z,27.88
2022-10-28T06:01:58.004Z,27.98
2022-10-28T06:04:27.182Z,27.77
2022-10-28T06:09:24.327Z,25.60
2022-10-28T06:11:53.722Z,26.52
2022-10-28T06:14:23.233Z,27.00
2022-10-28T06:16:52.434Z,28.00
2022-10-28T06:19:22.161Z,26.37
2022-10-28T06:21:51.060Z,28.15
2022-10-28T06:24:19.664Z,28.42
2022-10-28T06:26:49.156Z,30.25
2022-10-28T06:29:19.480Z,28.83
2022-10-28T06:31:48.508Z,29.83
2022-10-28T06:34:17.199Z,30.75
2022-10-28T06:36:46.735Z,29.92
2022-10-28T06:39:16.563Z,29.70
2022-10-28T06:41:46.505Z,29.50
2022-10-28T06:46:47.330Z,28.30
2022-10-28T06:49:16.978Z,29.95
2022-10-28T06:51:46.088Z,30.75
2022-10-28T06:54:16.363Z,27.38
2022-10-28T06:56:46.091Z,29.67
2022-10-28T06:59:22.816Z,28.08
2022-10-28T07:01:53.851Z,28.00
2022-10-28T07:04:23.445Z,25.92
2022-10-28T07:06:57.040Z,26.60
2022-10-28T07:09:26.323Z,26.77
2022-10-28T07:12:04.573Z,25.77
2022-10-28T07:14:36.643Z,22.33
2022-10-28T07:17:07.488Z,24.27
2022-10-28T07:19:36.873Z,25.20
2022-10-28T07:22:05.930Z,25.75
2022-10-28T07:24:35.610Z,29.63
2022-10-28T07:27:04.688Z,36.05
2022-10-28T07:29:34.733Z,38.42
2022-10-28T07:32:03.596Z,36.80
2022-10-28T07:34:34.712Z,36.20
2022-10-28T07:37:05.770Z,33.28
2022-10-28T07:39:34.847Z,31.83
2022-10-28T07:42:03.546Z,29.27
2022-10-28T07:44:34.096Z,25.95
2022-10-28T07:47:02.847Z,26.08
2022-10-28T07:49:33.637Z,26.92
2022-10-28T07:52:07.796Z,27.15
2022-10-28T07:54:39.038Z,26.17
2022-10-28T07:57:15.436Z,25.02
2022-10-28T07:59:52.028Z,24.85
2022-10-28T08:02:32.553Z,25.17
2022-10-28T08:05:02.772Z,23.30
2022-10-28T08:07:38.705Z,21.40
2022-10-28T08:10:11.012Z,24.35
2022-10-28T08:12:46.838Z,23.80
2022-10-28T08:15:27.233Z,23.48
2022-10-28T08:17:57.022Z,23.98
2022-10-28T08:20:44.204Z,23.55
2022-10-28T08:23:25.584Z,23.65
2022-10-28T08:25:54.989Z,23.63
2022-10-28T08:28:24.709Z,24.40
2022-10-28T08:31:07.616Z,25.73
2022-10-28T08:33:52.180Z,23.25
2022-10-28T08:38:55.891Z,21.38
2022-10-28T08:41:31.022Z,24.15
2022-10-28T08:44:24.496Z,26.40
2022-10-28T08:46:59.046Z,24.70
2022-10-28T08:49:42.472Z,22.92
2022-10-28T08:52:25.583Z,26.75
2022-10-28T08:55:02.418Z,25.60
2022-10-28T08:57:52.509Z,25.98
2022-10-28T09:00:29.842Z,26.63
2022-10-28T09:03:12.370Z,26.10
2022-10-28T09:05:44.670Z,27.02
2022-10-28T09:08:22.446Z,24.30
2022-10-28T09:10:59.308Z,26.70
2022-10-28T09:13:31.678Z,24.25
2022-10-28T09:16:09.390Z,27.70
2022-10-28T09:18:50.764Z,29.00
2022-10-28T09:21:24.262Z,26.73
2022-10-28T09:24:00.077Z,27.58
2022-10-28T09:26:44.600Z,26.90
2022-10-28T09:29:28.073Z,27.55
2022-10-28T09:32:04.332Z,28.25
2022-10-28T09:34:38.704Z,26.33
2022-10-28T09:37:15.108Z,25.13
2022-10-28T09:39:50.037Z,25.70
2022-10-28T09:42:24.217Z,27.67
2022-10-28T09:45:07.288Z,27.55
2022-10-28T09:47:43.253Z,25.98
2022-10-28T09:50:28.289Z,24.70
2022-10-28T09:53:36.078Z,26.85
2022-10-28T09:56:31.816Z,25.73
2022-10-28T09:59:18.114Z,25.63
2022-10-28T10:05:37.616Z,22.52
2022-10-28T10:08:20.503Z,22.38
2022-10-28T10:11:02.708Z,22.25
2022-10-28T10:14:07.655Z,22.95
2022-10-28T10:20:35.337Z,23.55
2022-10-28T10:23:27.938Z,21.67
2022-10-28T10:26:06.679Z,24.08
2022-10-28T15:05:00.029Z,14.80
2022-10-28T18:20:08.580Z,36.95
2022-10-28T18:58:29.558Z,41.97
2022-10-28T19:11:33.178Z,38.47
2022-10-28T19:14:29.049Z,35.40
2022-10-28T19:24:41.563Z,32.13
2022-10-28T19:47:18.170Z,30.75
2022-10-28T19:53:20.473Z,33.22
2022-10-28T19:55:53.119Z,32.17
2022-10-28T20:05:08.160Z,22.98
2022-10-28T20:23:30.659Z,44.55
2022-10-28T20:26:51.639Z,39.60
2022-10-28T20:33:13.440Z,27.60
2022-10-28T20:36:02.775Z,38.15
2022-10-28T20:38:47.341Z,24.17
2022-10-28T20:41:59.963Z,19.05
2022-10-28T20:47:55.806Z,19.77
2022-10-28T20:50:38.764Z,37.15
2022-10-28T20:53:29.764Z,25.30
2022-10-28T20:56:17.482Z,16.95
2022-10-28T20:59:25.956Z,19.30
2022-10-28T21:02:21.984Z,17.25
2022-10-28T21:05:38.225Z,15.38
2022-10-28T21:08:11.164Z,14.93
2022-10-28T21:10:41.820Z,15.50
2022-10-28T21:16:00.484Z,15.00
2022-10-28T21:18:58.755Z,14.35
2022-10-28T21:21:54.586Z,14.60
2022-10-28T21:25:04.535Z,13.77
2022-10-28T21:30:50.245Z,12.55
2022-10-28T21:40:00.989Z,11.50
2022-10-28T21:45:34.959Z,12.52
2022-10-28T21:48:21.575Z,11.90
2022-10-28T21:54:20.077Z,11.85
2022-10-28T21:57:12.765Z,11.30
2022-10-28T21:59:42.668Z,11.45
2022-10-28T22:02:38.184Z,11.88
2022-10-28T22:05:18.811Z,12.43
2022-10-28T22:37:37.318Z,9.73
2022-10-28T22:40:44.729Z,10.00
2022-10-28T22:43:50.571Z,9.68
2022-10-28T22:50:02.447Z,10.98
2022-10-28T22:53:01.586Z,10.13
2022-10-28T22:55:35.294Z,11.52
2022-10-28T23:00:32.864Z,9.85
2022-10-28T23:03:03.494Z,10.55
2022-10-28T23:05:37.871Z,10.05
2022-10-28T23:08:06.886Z,10.73
2022-10-28T23:10:38.747Z,10.50
2022-10-28T23:13:09.030Z,11.00
2022-10-28T23:15:38.451Z,10.05
2022-10-28T23:18:10.989Z,10.57
2022-10-28T23:20:49.152Z,11.32
2022-10-28T23:23:21.164Z,11.10
2022-10-28T23:25:54.356Z,11.55
2022-10-28T23:28:23.266Z,13.45
2022-10-28T23:30:52.427Z,11.35
2022-10-28T23:33:23.673Z,10.65
2022-10-28T23:35:58.236Z,11.25
2022-10-28T23:38:27.586Z,10.50
2022-10-28T23:40:59.164Z,9.07
2022-10-28T23:43:29.789Z,10.98
2022-10-28T23:45:59.336Z,10.73
2022-10-28T23:48:28.588Z,10.82
2022-10-28T23:51:00.783Z,10.63
2022-10-28T23:53:31.616Z,10.48
2022-10-28T23:56:03.682Z,10.95
2022-10-28T23:58:34.258Z,10.40
